Morania No 6 — WBQ7544 — position and weather

sailwx.info

Track history (hours):
 
Tides and Currents Weather Stations Pressure Air Temp Water Temp Dewpoint Dewpoint Depression Visibility Wind Speed Wind Dir Waves Ship Positions

Morania No 6

Owner: PENN MARITIME INC, Seattle, WA. More information available from US FCC via Universal Licensing System and Coast Guard Vessel Documentation Center.

Last reported at 2015-Apr-25 10:13 UTC. Time now 2015-Apr-27 22:16 UTC.
Position N 29°50' W 093°58'.

Length 45 m; draft 9.2 m.

MMSI: 366920970.

Date/timePositionNaut miles runAvg speedWind from/ knotsBaromVisibWave heightAir tempDewpointWater temp
2015-Apr-25 10:13N 29°50' W 093°58'  
2015-Apr-22 09:07N 29°05' W 089°17'6 9.2
2015-Apr-22 08:25N 29°11' W 089°16'911.0
2015-Apr-22 07:33N 29°19' W 089°23'26 0.6
2015-Apr-20 09:31N 29°34' W 089°47'1110.9
2015-Apr-20 08:32N 29°40' W 089°58'17 7.2
2015-Apr-20 06:10N 29°57' W 090°01'24 0.5
2015-Apr-18 02:27N 30°00' W 090°28'16 4.9
2015-Apr-17 23:08N 29°57' W 090°10'3 5.0
2015-Apr-17 22:31N 29°55' W 090°07'4 3.7
2015-Apr-17 21:32N 29°56' W 090°03'0 0.0
2015-Apr-17 20:29N 29°56' W 090°03'0 0.0
2015-Apr-17 19:31N 29°56' W 090°03'0 0.0
2015-Apr-17 18:31N 29°56' W 090°03'0 0.0
2015-Apr-17 17:30N 29°56' W 090°03'0 0.0
2015-Apr-17 16:33N 29°56' W 090°03'0 0.0
2015-Apr-17 15:33N 29°56' W 090°03'0 0.0
2015-Apr-16 18:32N 29°56' W 090°03'0 0.1
2015-Apr-16 16:17N 29°56' W 090°03'0 0.0
2015-Apr-16 14:24N 29°56' W 090°03'0 0.0
2015-Apr-16 12:29N 29°56' W 090°03'0 0.0
2015-Apr-16 11:07N 29°56' W 090°03'0 0.0
2015-Apr-16 10:16N 29°56' W 090°03'0 0.0
2015-Apr-16 09:30N 29°56' W 090°03'0 0.0
2015-Apr-16 08:32N 29°56' W 090°03'0 0.0
2015-Apr-16 07:29N 29°56' W 090°03'0 0.0
2015-Apr-16 06:33N 29°56' W 090°03'0 0.0
2015-Apr-16 05:33N 29°56' W 090°03'5 5.0
2015-Apr-16 04:28N 29°57' W 090°09'  
Track history (hours):
 
Tides and Currents Weather Stations Pressure Air Temp Water Temp Dewpoint Dewpoint Depression Visibility Wind Speed Wind Dir Waves Ship Positions

Morania No 6

Owner: PENN MARITIME INC, Seattle, WA. More information available from US FCC via Universal Licensing System and Coast Guard Vessel Documentation Center.

Last reported at 2015-Apr-25 10:13 UTC. Time now 2015-Apr-27 22:16 UTC.
Position N 29°50' W 093°58'.

Length 45 m; draft 9.2 m.

MMSI: 366920970.

Date/timePositionNaut miles runAvg speedWind from/ knotsBaromVisibWave heightAir tempDewpointWater temp
2015-Apr-25 10:13N 29°50' W 093°58'  
2015-Apr-22 09:07N 29°05' W 089°17'6 9.2
2015-Apr-22 08:25N 29°11' W 089°16'911.0
2015-Apr-22 07:33N 29°19' W 089°23'26 0.6
2015-Apr-20 09:31N 29°34' W 089°47'1110.9
2015-Apr-20 08:32N 29°40' W 089°58'17 7.2
2015-Apr-20 06:10N 29°57' W 090°01'24 0.5
2015-Apr-18 02:27N 30°00' W 090°28'16 4.9
2015-Apr-17 23:08N 29°57' W 090°10'3 5.0
2015-Apr-17 22:31N 29°55' W 090°07'4 3.7
2015-Apr-17 21:32N 29°56' W 090°03'0 0.0
2015-Apr-17 20:29N 29°56' W 090°03'0 0.0
2015-Apr-17 19:31N 29°56' W 090°03'0 0.0
2015-Apr-17 18:31N 29°56' W 090°03'0 0.0
2015-Apr-17 17:30N 29°56' W 090°03'0 0.0
2015-Apr-17 16:33N 29°56' W 090°03'0 0.0
2015-Apr-17 15:33N 29°56' W 090°03'0 0.0
2015-Apr-16 18:32N 29°56' W 090°03'0 0.1
2015-Apr-16 16:17N 29°56' W 090°03'0 0.0
2015-Apr-16 14:24N 29°56' W 090°03'0 0.0
2015-Apr-16 12:29N 29°56' W 090°03'0 0.0
2015-Apr-16 11:07N 29°56' W 090°03'0 0.0
2015-Apr-16 10:16N 29°56' W 090°03'0 0.0
2015-Apr-16 09:30N 29°56' W 090°03'0 0.0
2015-Apr-16 08:32N 29°56' W 090°03'0 0.0
2015-Apr-16 07:29N 29°56' W 090°03'0 0.0
2015-Apr-16 06:33N 29°56' W 090°03'0 0.0
2015-Apr-16 05:33N 29°56' W 090°03'5 5.0
2015-Apr-16 04:28N 29°57' W 090°09'  

Dump ship's entire track history